sensor_id;sensor_type;location;lat;lon;timestamp;temperature;humidity
75217;HTU21D;63800;51.972;5.682;2024-01-30T00:01:15;7.34;118.99
75217;HTU21D;63800;51.972;5.682;2024-01-30T00:03:41;7.33;118.99
75217;HTU21D;63800;51.972;5.682;2024-01-30T00:06:07;7.61;118.99
75217;HTU21D;63800;51.972;5.682;2024-01-30T00:08:33;7.34;118.99
75217;HTU21D;63800;51.972;5.682;2024-01-30T00:10:59;7.30;118.99
75217;HTU21D;63800;51.972;5.682;2024-01-30T00:13:24;7.41;118.99
75217;HTU21D;63800;51.972;5.682;2024-01-30T00:15:49;7.31;118.99
75217;HTU21D;63800;51.972;5.682;2024-01-30T00:18:15;7.05;118.99
75217;HTU21D;63800;51.972;5.682;2024-01-30T00:20:41;7.11;118.99
75217;HTU21D;63800;51.972;5.682;2024-01-30T00:23:08;7.31;118.99
75217;HTU21D;63800;51.972;5.682;2024-01-30T00:25:33;7.13;118.99
75217;HTU21D;63800;51.972;5.682;2024-01-30T00:27:59;-6.70;118.99
75217;HTU21D;63800;51.972;5.682;2024-01-30T00:30:24;-6.77;118.99
75217;HTU21D;63800;51.972;5.682;2024-01-30T00:32:50;-6.83;118.99
75217;HTU21D;63800;51.972;5.682;2024-01-30T00:35:16;-6.79;118.99
75217;HTU21D;63800;51.972;5.682;2024-01-30T00:37:42;-6.87;118.99
75217;HTU21D;63800;51.972;5.682;2024-01-30T00:40:08;-6.90;118.99
75217;HTU21D;63800;51.972;5.682;2024-01-30T00:42:35;-6.91;118.99
75217;HTU21D;63800;51.972;5.682;2024-01-30T00:45:01;-6.90;118.99
75217;HTU21D;63800;51.972;5.682;2024-01-30T00:47:26;-6.93;118.99
75217;HTU21D;63800;51.972;5.682;2024-01-30T00:49:52;-6.89;118.99
75217;HTU21D;63800;51.972;5.682;2024-01-30T00:52:17;-6.86;118.99
75217;HTU21D;63800;51.972;5.682;2024-01-30T00:54:43;-6.95;118.99
75217;HTU21D;63800;51.972;5.682;2024-01-30T00:57:08;-6.94;118.99
75217;HTU21D;63800;51.972;5.682;2024-01-30T00:59:34;-6.97;118.99
75217;HTU21D;63800;51.972;5.682;2024-01-30T01:01:59;-6.96;118.99
75217;HTU21D;63800;51.972;5.682;2024-01-30T01:04:25;-7.03;118.99
75217;HTU21D;63800;51.972;5.682;2024-01-30T01:06:51;-7.09;118.99
75217;HTU21D;63800;51.972;5.682;2024-01-30T01:09:17;-7.04;118.99
75217;HTU21D;63800;51.972;5.682;2024-01-30T01:11:42;-7.06;118.99
75217;HTU21D;63800;51.972;5.682;2024-01-30T01:14:08;-7.04;118.99
75217;HTU21D;63800;51.972;5.682;2024-01-30T01:16:34;-7.03;118.99
75217;HTU21D;63800;51.972;5.682;2024-01-30T01:18:59;-7.07;118.99
75217;HTU21D;63800;51.972;5.682;2024-01-30T01:21:25;-7.09;118.99
75217;HTU21D;63800;51.972;5.682;2024-01-30T01:23:51;-7.09;118.99
75217;HTU21D;63800;51.972;5.682;2024-01-30T01:26:16;-7.09;118.99
75217;HTU21D;63800;51.972;5.682;2024-01-30T01:28:41;-7.11;118.99
75217;HTU21D;63800;51.972;5.682;2024-01-30T01:31:07;-7.18;118.99
75217;HTU21D;63800;51.972;5.682;2024-01-30T01:33:33;-7.20;118.99
75217;HTU21D;63800;51.972;5.682;2024-01-30T01:35:59;-7.15;118.99
75217;HTU21D;63800;51.972;5.682;2024-01-30T01:38:25;-7.23;118.99
75217;HTU21D;63800;51.972;5.682;2024-01-30T01:40:50;-7.17;118.99
75217;HTU21D;63800;51.972;5.682;2024-01-30T01:43:16;-7.26;118.99
75217;HTU21D;63800;51.972;5.682;2024-01-30T01:45:42;-7.17;118.99
75217;HTU21D;63800;51.972;5.682;2024-01-30T01:48:07;-7.17;118.99
75217;HTU21D;63800;51.972;5.682;2024-01-30T01:50:34;-7.16;118.99
75217;HTU21D;63800;51.972;5.682;2024-01-30T01:53:01;-7.19;118.99
75217;HTU21D;63800;51.972;5.682;2024-01-30T01:55:29;-7.19;118.99
75217;HTU21D;63800;51.972;5.682;2024-01-30T01:57:55;-7.27;118.99
75217;HTU21D;63800;51.972;5.682;2024-01-30T02:00:21;-7.23;118.99
75217;HTU21D;63800;51.972;5.682;2024-01-30T02:02:47;-7.21;118.99
75217;HTU21D;63800;51.972;5.682;2024-01-30T02:05:13;-7.23;118.99
75217;HTU21D;63800;51.972;5.682;2024-01-30T02:07:39;-7.16;118.99
75217;HTU21D;63800;51.972;5.682;2024-01-30T02:10:05;-7.13;118.99
75217;HTU21D;63800;51.972;5.682;2024-01-30T02:12:32;-7.16;118.99
75217;HTU21D;63800;51.972;5.682;2024-01-30T02:14:59;-7.16;118.99
75217;HTU21D;63800;51.972;5.682;2024-01-30T02:17:25;-7.19;118.99
75217;HTU21D;63800;51.972;5.682;2024-01-30T02:19:52;-7.19;118.99
75217;HTU21D;63800;51.972;5.682;2024-01-30T02:22:17;-7.15;118.99
75217;HTU21D;63800;51.972;5.682;2024-01-30T02:24:44;-7.07;118.99
75217;HTU21D;63800;51.972;5.682;2024-01-30T02:27:09;-7.12;118.99
75217;HTU21D;63800;51.972;5.682;2024-01-30T02:29:35;-7.19;118.99
75217;HTU21D;63800;51.972;5.682;2024-01-30T02:32:01;-7.11;118.99
75217;HTU21D;63800;51.972;5.682;2024-01-30T02:34:26;-7.13;118.99
75217;HTU21D;63800;51.972;5.682;2024-01-30T02:36:51;-7.12;118.99
75217;HTU21D;63800;51.972;5.682;2024-01-30T02:39:17;-7.15;118.99
75217;HTU21D;63800;51.972;5.682;2024-01-30T02:41:42;-7.09;118.99
75217;HTU21D;63800;51.972;5.682;2024-01-30T02:44:08;-7.07;118.99
75217;HTU21D;63800;51.972;5.682;2024-01-30T02:46:33;-7.04;118.99
75217;HTU21D;63800;51.972;5.682;2024-01-30T02:48:58;-7.09;118.99
75217;HTU21D;63800;51.972;5.682;2024-01-30T02:51:24;-7.07;118.99
75217;HTU21D;63800;51.972;5.682;2024-01-30T02:53:49;-7.17;118.99
75217;HTU21D;63800;51.972;5.682;2024-01-30T02:56:15;-7.11;118.99
75217;HTU21D;63800;51.972;5.682;2024-01-30T02:58:40;-7.13;118.99
75217;HTU21D;63800;51.972;5.682;2024-01-30T03:01:07;-7.11;118.99
75217;HTU21D;63800;51.972;5.682;2024-01-30T03:03:32;-7.12;118.99
75217;HTU21D;63800;51.972;5.682;2024-01-30T03:05:59;-7.17;118.99
75217;HTU21D;63800;51.972;5.682;2024-01-30T03:08:24;-7.20;118.99
75217;HTU21D;63800;51.972;5.682;2024-01-30T03:10:50;-7.18;118.99
75217;HTU21D;63800;51.972;5.682;2024-01-30T03:13:15;-7.18;118.99
75217;HTU21D;63800;51.972;5.682;2024-01-30T03:15:41;-7.19;118.99
75217;HTU21D;63800;51.972;5.682;2024-01-30T03:18:06;-7.18;118.99
75217;HTU21D;63800;51.972;5.682;2024-01-30T03:20:31;-7.19;118.99
75217;HTU21D;63800;51.972;5.682;2024-01-30T03:22:59;-7.17;118.99
75217;HTU21D;63800;51.972;5.682;2024-01-30T03:25:25;-7.17;118.99
75217;HTU21D;63800;51.972;5.682;2024-01-30T03:27:51;-7.12;118.99
75217;HTU21D;63800;51.972;5.682;2024-01-30T03:30:16;-7.11;118.99
75217;HTU21D;63800;51.972;5.682;2024-01-30T03:32:42;-7.11;118.99
75217;HTU21D;63800;51.972;5.682;2024-01-30T03:35:08;-7.08;118.99
75217;HTU21D;63800;51.972;5.682;2024-01-30T03:37:34;-7.12;118.99
75217;HTU21D;63800;51.972;5.682;2024-01-30T03:39:59;-7.21;118.99
75217;HTU21D;63800;51.972;5.682;2024-01-30T03:42:24;-7.22;118.99
75217;HTU21D;63800;51.972;5.682;2024-01-30T03:44:50;-7.18;118.99
75217;HTU21D;63800;51.972;5.682;2024-01-30T03:47:20;-7.10;118.99
75217;HTU21D;63800;51.972;5.682;2024-01-30T03:49:46;-7.18;118.99
75217;HTU21D;63800;51.972;5.682;2024-01-30T03:52:11;-7.16;118.99
75217;HTU21D;63800;51.972;5.682;2024-01-30T03:54:37;-7.18;118.99
75217;HTU21D;63800;51.972;5.682;2024-01-30T03:57:02;-7.17;118.99
75217;HTU21D;63800;51.972;5.682;2024-01-30T03:59:28;-7.15;118.99
75217;HTU21D;63800;51.972;5.682;2024-01-30T04:01:54;-7.12;118.99
75217;HTU21D;63800;51.972;5.682;2024-01-30T04:04:19;-7.09;118.99
75217;HTU21D;63800;51.972;5.682;2024-01-30T04:06:45;-7.09;118.99
75217;HTU21D;63800;51.972;5.682;2024-01-30T04:09:12;-7.11;118.99
75217;HTU21D;63800;51.972;5.682;2024-01-30T04:11:41;-7.08;118.99
75217;HTU21D;63800;51.972;5.682;2024-01-30T04:14:07;-7.12;118.99
75217;HTU21D;63800;51.972;5.682;2024-01-30T04:16:33;-7.10;118.99
75217;HTU21D;63800;51.972;5.682;2024-01-30T04:18:59;-7.10;118.99
75217;HTU21D;63800;51.972;5.682;2024-01-30T04:21:24;-7.10;118.99
75217;HTU21D;63800;51.972;5.682;2024-01-30T04:23:51;-7.12;118.99
75217;HTU21D;63800;51.972;5.682;2024-01-30T04:26:16;-7.13;118.99
75217;HTU21D;63800;51.972;5.682;2024-01-30T04:28:43;-7.12;118.99
75217;HTU21D;63800;51.972;5.682;2024-01-30T04:31:09;-7.04;118.99
75217;HTU21D;63800;51.972;5.682;2024-01-30T04:33:34;-7.03;118.99
75217;HTU21D;63800;51.972;5.682;2024-01-30T04:36:00;-7.03;118.99
75217;HTU21D;63800;51.972;5.682;2024-01-30T04:38:25;-7.02;118.99
75217;HTU21D;63800;51.972;5.682;2024-01-30T04:40:51;-7.01;118.99
75217;HTU21D;63800;51.972;5.682;2024-01-30T04:43:16;-7.00;118.99
75217;HTU21D;63800;51.972;5.682;2024-01-30T04:45:42;-7.01;118.99
75217;HTU21D;63800;51.972;5.682;2024-01-30T04:48:07;-7.05;118.99
75217;HTU21D;63800;51.972;5.682;2024-01-30T04:50:33;-7.01;118.99
75217;HTU21D;63800;51.972;5.682;2024-01-30T04:52:58;-6.96;118.99
75217;HTU21D;63800;51.972;5.682;2024-01-30T04:55:24;-7.07;118.99
75217;HTU21D;63800;51.972;5.682;2024-01-30T04:57:49;-7.06;118.99
75217;HTU21D;63800;51.972;5.682;2024-01-30T05:00:15;-7.03;118.99
75217;HTU21D;63800;51.972;5.682;2024-01-30T05:02:41;-7.05;118.99
75217;HTU21D;63800;51.972;5.682;2024-01-30T05:05:06;-7.12;118.99
75217;HTU21D;63800;51.972;5.682;2024-01-30T05:07:33;-7.09;118.99
75217;HTU21D;63800;51.972;5.682;2024-01-30T05:09:58;-7.11;118.99
75217;HTU21D;63800;51.972;5.682;2024-01-30T05:12:23;-7.04;118.99
75217;HTU21D;63800;51.972;5.682;2024-01-30T05:14:49;-7.04;118.99
75217;HTU21D;63800;51.972;5.682;2024-01-30T05:17:14;-7.06;118.99
75217;HTU21D;63800;51.972;5.682;2024-01-30T05:19:40;-7.11;118.99
75217;HTU21D;63800;51.972;5.682;2024-01-30T05:22:05;-7.08;118.99
75217;HTU21D;63800;51.972;5.682;2024-01-30T05:24:30;-7.08;118.99
75217;HTU21D;63800;51.972;5.682;2024-01-30T05:26:57;-7.06;118.99
75217;HTU21D;63800;51.972;5.682;2024-01-30T05:29:22;-6.98;118.99
75217;HTU21D;63800;51.972;5.682;2024-01-30T05:31:48;-6.97;118.99
75217;HTU21D;63800;51.972;5.682;2024-01-30T05:34:13;-6.86;118.99
75217;HTU21D;63800;51.972;5.682;2024-01-30T05:36:39;-6.81;118.99
75217;HTU21D;63800;51.972;5.682;2024-01-30T05:39:04;-6.70;118.99
75217;HTU21D;63800;51.972;5.682;2024-01-30T05:41:30;-6.89;118.99
75217;HTU21D;63800;51.972;5.682;2024-01-30T05:43:55;-6.78;118.99
75217;HTU21D;63800;51.972;5.682;2024-01-30T05:46:21;-6.72;118.99
75217;HTU21D;63800;51.972;5.682;2024-01-30T05:48:46;-6.71;118.99
75217;HTU21D;63800;51.972;5.682;2024-01-30T05:51:12;-6.68;118.99
75217;HTU21D;63800;51.972;5.682;2024-01-30T05:53:37;-6.79;118.99
75217;HTU21D;63800;51.972;5.682;2024-01-30T05:56:03;-6.76;118.99
75217;HTU21D;63800;51.972;5.682;2024-01-30T05:58:29;-6.80;118.99
75217;HTU21D;63800;51.972;5.682;2024-01-30T06:00:56;-6.78;118.99
75217;HTU21D;63800;51.972;5.682;2024-01-30T06:03:21;-6.90;118.99
75217;HTU21D;63800;51.972;5.682;2024-01-30T06:05:47;-6.92;118.99
75217;HTU21D;63800;51.972;5.682;2024-01-30T06:08:12;-6.94;118.99
75217;HTU21D;63800;51.972;5.682;2024-01-30T06:10:38;-6.91;118.99
75217;HTU21D;63800;51.972;5.682;2024-01-30T06:13:04;-6.92;118.99
75217;HTU21D;63800;51.972;5.682;2024-01-30T06:15:29;-6.87;118.99
75217;HTU21D;63800;51.972;5.682;2024-01-30T06:17:55;-6.86;118.99
75217;HTU21D;63800;51.972;5.682;2024-01-30T06:20:20;-6.89;118.99
75217;HTU21D;63800;51.972;5.682;2024-01-30T06:22:46;-6.91;118.99
75217;HTU21D;63800;51.972;5.682;2024-01-30T06:25:11;-6.86;118.99
75217;HTU21D;63800;51.972;5.682;2024-01-30T06:27:38;-6.88;118.99
75217;HTU21D;63800;51.972;5.682;2024-01-30T06:30:04;-6.86;118.99
75217;HTU21D;63800;51.972;5.682;2024-01-30T06:32:30;-6.90;118.99
75217;HTU21D;63800;51.972;5.682;2024-01-30T06:35:00;-6.85;118.99
75217;HTU21D;63800;51.972;5.682;2024-01-30T06:37:25;-6.92;118.99
75217;HTU21D;63800;51.972;5.682;2024-01-30T06:39:50;-6.89;118.99
75217;HTU21D;63800;51.972;5.682;2024-01-30T06:42:17;-6.89;118.99
75217;HTU21D;63800;51.972;5.682;2024-01-30T06:44:43;-6.86;118.99
75217;HTU21D;63800;51.972;5.682;2024-01-30T06:47:08;-6.87;118.99
75217;HTU21D;63800;51.972;5.682;2024-01-30T06:49:33;-6.87;118.99
75217;HTU21D;63800;51.972;5.682;2024-01-30T06:52:00;-6.88;118.99
75217;HTU21D;63800;51.972;5.682;2024-01-30T06:54:25;-6.88;118.99
75217;HTU21D;63800;51.972;5.682;2024-01-30T06:56:50;-6.88;118.99
75217;HTU21D;63800;51.972;5.682;2024-01-30T06:59:16;-6.88;118.99
75217;HTU21D;63800;51.972;5.682;2024-01-30T07:01:41;-6.85;118.99
75217;HTU21D;63800;51.972;5.682;2024-01-30T07:04:07;-6.87;118.99
75217;HTU21D;63800;51.972;5.682;2024-01-30T07:06:32;-6.89;118.99
75217;HTU21D;63800;51.972;5.682;2024-01-30T07:08:58;-6.79;118.99
75217;HTU21D;63800;51.972;5.682;2024-01-30T07:11:23;-6.83;118.99
75217;HTU21D;63800;51.972;5.682;2024-01-30T07:13:52;-6.83;118.99
75217;HTU21D;63800;51.972;5.682;2024-01-30T07:16:18;-6.81;118.99
75217;HTU21D;63800;51.972;5.682;2024-01-30T07:18:43;-6.83;118.99
75217;HTU21D;63800;51.972;5.682;2024-01-30T07:21:09;-6.78;118.99
75217;HTU21D;63800;51.972;5.682;2024-01-30T07:23:35;-6.83;118.99
75217;HTU21D;63800;51.972;5.682;2024-01-30T07:26:06;-6.76;118.99
75217;HTU21D;63800;51.972;5.682;2024-01-30T07:28:34;-6.75;118.99
75217;HTU21D;63800;51.972;5.682;2024-01-30T07:31:01;-6.82;118.99
75217;HTU21D;63800;51.972;5.682;2024-01-30T07:33:27;-6.79;118.99
75217;HTU21D;63800;51.972;5.682;2024-01-30T07:35:53;-6.82;118.99
75217;HTU21D;63800;51.972;5.682;2024-01-30T07:38:19;-6.82;118.99
75217;HTU21D;63800;51.972;5.682;2024-01-30T07:40:45;-6.83;118.99
75217;HTU21D;63800;51.972;5.682;2024-01-30T07:43:10;-6.85;118.99
75217;HTU21D;63800;51.972;5.682;2024-01-30T07:45:36;-6.83;118.99
75217;HTU21D;63800;51.972;5.682;2024-01-30T07:48:03;-6.75;118.99
75217;HTU21D;63800;51.972;5.682;2024-01-30T07:50:28;-6.81;118.99
75217;HTU21D;63800;51.972;5.682;2024-01-30T07:52:56;-6.80;118.99
75217;HTU21D;63800;51.972;5.682;2024-01-30T07:55:21;-6.76;118.99
75217;HTU21D;63800;51.972;5.682;2024-01-30T07:57:51;-6.73;118.99
75217;HTU21D;63800;51.972;5.682;2024-01-30T08:00:18;-6.75;118.99
75217;HTU21D;63800;51.972;5.682;2024-01-30T08:02:45;-6.70;118.99
75217;HTU21D;63800;51.972;5.682;2024-01-30T08:05:10;-6.67;118.99
75217;HTU21D;63800;51.972;5.682;2024-01-30T08:07:37;-6.64;118.99
75217;HTU21D;63800;51.972;5.682;2024-01-30T08:10:02;-6.66;118.99
75217;HTU21D;63800;51.972;5.682;2024-01-30T08:12:28;-6.66;118.99
75217;HTU21D;63800;51.972;5.682;2024-01-30T08:14:54;-6.60;118.99
75217;HTU21D;63800;51.972;5.682;2024-01-30T08:17:19;-6.59;118.99
75217;HTU21D;63800;51.972;5.682;2024-01-30T08:19:45;-6.58;118.99
75217;HTU21D;63800;51.972;5.682;2024-01-30T08:22:12;-6.57;118.99
75217;HTU21D;63800;51.972;5.682;2024-01-30T08:24:37;-6.50;118.99
75217;HTU21D;63800;51.972;5.682;2024-01-30T08:27:03;-6.48;118.99
75217;HTU21D;63800;51.972;5.682;2024-01-30T08:29:30;-6.43;118.99
75217;HTU21D;63800;51.972;5.682;2024-01-30T08:31:55;-6.43;118.99
75217;HTU21D;63800;51.972;5.682;2024-01-30T08:34:21;-6.37;118.99
75217;HTU21D;63800;51.972;5.682;2024-01-30T08:36:46;-6.37;118.99
75217;HTU21D;63800;51.972;5.682;2024-01-30T08:39:12;-6.33;118.99
75217;HTU21D;63800;51.972;5.682;2024-01-30T08:41:37;-6.28;118.99
75217;HTU21D;63800;51.972;5.682;2024-01-30T08:44:02;-6.30;118.99
75217;HTU21D;63800;51.972;5.682;2024-01-30T08:46:29;-6.26;118.99
75217;HTU21D;63800;51.972;5.682;2024-01-30T08:48:55;-6.26;118.99
75217;HTU21D;63800;51.972;5.682;2024-01-30T08:51:21;-6.23;118.99
75217;HTU21D;63800;51.972;5.682;2024-01-30T08:53:47;-6.26;118.99
75217;HTU21D;63800;51.972;5.682;2024-01-30T08:56:13;-6.21;118.99
75217;HTU21D;63800;51.972;5.682;2024-01-30T08:58:38;-6.23;118.99
75217;HTU21D;63800;51.972;5.682;2024-01-30T09:01:05;-6.22;118.99
75217;HTU21D;63800;51.972;5.682;2024-01-30T09:03:31;-6.20;118.99
75217;HTU21D;63800;51.972;5.682;2024-01-30T09:05:56;-6.12;118.99
75217;HTU21D;63800;51.972;5.682;2024-01-30T09:08:22;-6.13;118.99
75217;HTU21D;63800;51.972;5.682;2024-01-30T09:10:48;-6.09;118.99
75217;HTU21D;63800;51.972;5.682;2024-01-30T09:13:15;-6.07;118.99
75217;HTU21D;63800;51.972;5.682;2024-01-30T09:15:41;-6.04;118.99
75217;HTU21D;63800;51.972;5.682;2024-01-30T09:18:06;-6.02;118.99
75217;HTU21D;63800;51.972;5.682;2024-01-30T09:20:32;-6.04;118.99
75217;HTU21D;63800;51.972;5.682;2024-01-30T09:22:57;-5.96;118.99
75217;HTU21D;63800;51.972;5.682;2024-01-30T09:25:23;-5.98;118.99
75217;HTU21D;63800;51.972;5.682;2024-01-30T09:27:48;-6.00;118.99
75217;HTU21D;63800;51.972;5.682;2024-01-30T09:30:14;-5.97;118.99
75217;HTU21D;63800;51.972;5.682;2024-01-30T09:32:40;-5.92;118.99
75217;HTU21D;63800;51.972;5.682;2024-01-30T09:35:05;-5.93;118.99
75217;HTU21D;63800;51.972;5.682;2024-01-30T09:37:31;-5.88;118.99
75217;HTU21D;63800;51.972;5.682;2024-01-30T09:39:57;-5.85;118.99
75217;HTU21D;63800;51.972;5.682;2024-01-30T09:42:34;-5.79;118.99
75217;HTU21D;63800;51.972;5.682;2024-01-30T09:45:03;-5.76;118.99
75217;HTU21D;63800;51.972;5.682;2024-01-30T09:47:43;-5.75;118.99
75217;HTU21D;63800;51.972;5.682;2024-01-30T09:50:10;-5.71;118.99
75217;HTU21D;63800;51.972;5.682;2024-01-30T09:52:36;-5.70;118.99
75217;HTU21D;63800;51.972;5.682;2024-01-30T09:55:03;-5.64;118.99
75217;HTU21D;63800;51.972;5.682;2024-01-30T09:57:28;-5.65;118.99
75217;HTU21D;63800;51.972;5.682;2024-01-30T09:59:54;-5.68;118.99
75217;HTU21D;63800;51.972;5.682;2024-01-30T10:02:20;-5.69;118.99
75217;HTU21D;63800;51.972;5.682;2024-01-30T10:04:50;-5.71;118.99
75217;HTU21D;63800;51.972;5.682;2024-01-30T10:07:17;-5.67;118.99
75217;HTU21D;63800;51.972;5.682;2024-01-30T10:09:42;-5.67;118.99
75217;HTU21D;63800;51.972;5.682;2024-01-30T10:12:12;-5.71;118.99
75217;HTU21D;63800;51.972;5.682;2024-01-30T10:14:41;-5.69;118.99
75217;HTU21D;63800;51.972;5.682;2024-01-30T10:17:11;-5.64;118.99
75217;HTU21D;63800;51.972;5.682;2024-01-30T10:19:38;-5.62;118.99
75217;HTU21D;63800;51.972;5.682;2024-01-30T10:22:04;-5.61;118.99
75217;HTU21D;63800;51.972;5.682;2024-01-30T10:24:29;-5.59;118.99
75217;HTU21D;63800;51.972;5.682;2024-01-30T10:26:55;-5.59;118.99
75217;HTU21D;63800;51.972;5.682;2024-01-30T10:29:21;-5.57;118.99
75217;HTU21D;63800;51.972;5.682;2024-01-30T10:31:57;-5.54;118.99
75217;HTU21D;63800;51.972;5.682;2024-01-30T10:34:23;-5.50;118.99
75217;HTU21D;63800;51.972;5.682;2024-01-30T10:36:50;-5.49;118.99
75217;HTU21D;63800;51.972;5.682;2024-01-30T10:39:19;-5.46;118.99
75217;HTU21D;63800;51.972;5.682;2024-01-30T10:41:47;-5.42;118.99
75217;HTU21D;63800;51.972;5.682;2024-01-30T10:44:18;-5.41;118.99
75217;HTU21D;63800;51.972;5.682;2024-01-30T10:46:50;-5.31;118.99
75217;HTU21D;63800;51.972;5.682;2024-01-30T10:49:16;-5.30;118.99
75217;HTU21D;63800;51.972;5.682;2024-01-30T10:51:42;-5.25;118.99
75217;HTU21D;63800;51.972;5.682;2024-01-30T10:54:09;-5.19;118.99
75217;HTU21D;63800;51.972;5.682;2024-01-30T10:56:35;-5.12;118.99
75217;HTU21D;63800;51.972;5.682;2024-01-30T10:59:02;-5.01;118.99
75217;HTU21D;63800;51.972;5.682;2024-01-30T11:01:29;-4.96;118.99
75217;HTU21D;63800;51.972;5.682;2024-01-30T11:03:55;-4.94;118.99
75217;HTU21D;63800;51.972;5.682;2024-01-30T11:06:22;-4.88;118.99
75217;HTU21D;63800;51.972;5.682;2024-01-30T11:09:16;-5.04;118.99
75217;HTU21D;63800;51.972;5.682;2024-01-30T11:11:50;-5.10;118.99
75217;HTU21D;63800;51.972;5.682;2024-01-30T11:14:15;-5.12;118.99
75217;HTU21D;63800;51.972;5.682;2024-01-30T11:16:41;-5.14;118.99
75217;HTU21D;63800;51.972;5.682;2024-01-30T11:19:11;-5.22;118.99
75217;HTU21D;63800;51.972;5.682;2024-01-30T11:21:43;-5.18;118.99
75217;HTU21D;63800;51.972;5.682;2024-01-30T11:24:08;-5.23;118.99
75217;HTU21D;63800;51.972;5.682;2024-01-30T11:26:34;-5.24;118.99
75217;HTU21D;63800;51.972;5.682;2024-01-30T11:29:03;-5.25;118.99
75217;HTU21D;63800;51.972;5.682;2024-01-30T11:31:29;-5.18;118.99
75217;HTU21D;63800;51.972;5.682;2024-01-30T11:33:56;-5.09;118.99
75217;HTU21D;63800;51.972;5.682;2024-01-30T11:36:25;-4.98;118.99
75217;HTU21D;63800;51.972;5.682;2024-01-30T11:38:51;-4.98;118.99
75217;HTU21D;63800;51.972;5.682;2024-01-30T11:41:17;-4.88;118.99
75217;HTU21D;63800;51.972;5.682;2024-01-30T11:43:43;-4.93;118.99
75217;HTU21D;63800;51.972;5.682;2024-01-30T11:46:16;-4.82;118.99
75217;HTU21D;63800;51.972;5.682;2024-01-30T11:48:41;-4.74;118.99
75217;HTU21D;63800;51.972;5.682;2024-01-30T11:51:07;-4.70;118.99
75217;HTU21D;63800;51.972;5.682;2024-01-30T11:53:32;-4.57;118.99
75217;HTU21D;63800;51.972;5.682;2024-01-30T11:55:57;-4.58;118.99
75217;HTU21D;63800;51.972;5.682;2024-01-30T11:58:25;-4.72;118.99
75217;HTU21D;63800;51.972;5.682;2024-01-30T12:00:57;-4.78;118.99
75217;HTU21D;63800;51.972;5.682;2024-01-30T12:03:23;-4.80;118.99
75217;HTU21D;63800;51.972;5.682;2024-01-30T12:05:57;-4.89;118.99
75217;HTU21D;63800;51.972;5.682;2024-01-30T12:08:26;-4.89;118.99
75217;HTU21D;63800;51.972;5.682;2024-01-30T12:10:58;-5.00;118.99
75217;HTU21D;63800;51.972;5.682;2024-01-30T12:13:25;-5.10;118.99
75217;HTU21D;63800;51.972;5.682;2024-01-30T12:15:51;-5.15;118.99
75217;HTU21D;63800;51.972;5.682;2024-01-30T12:18:18;-5.20;118.99
75217;HTU21D;63800;51.972;5.682;2024-01-30T12:20:44;-5.18;118.99
75217;HTU21D;63800;51.972;5.682;2024-01-30T12:23:12;-5.25;118.99
75217;HTU21D;63800;51.972;5.682;2024-01-30T12:25:37;-5.19;118.99
75217;HTU21D;63800;51.972;5.682;2024-01-30T12:28:03;-5.22;118.99
75217;HTU21D;63800;51.972;5.682;2024-01-30T12:30:29;-5.32;118.99
75217;HTU21D;63800;51.972;5.682;2024-01-30T12:32:55;-5.33;118.99
75217;HTU21D;63800;51.972;5.682;2024-01-30T12:35:20;-5.14;118.99
75217;HTU21D;63800;51.972;5.682;2024-01-30T12:37:47;-5.13;118.99
75217;HTU21D;63800;51.972;5.682;2024-01-30T12:40:17;-5.23;118.99
75217;HTU21D;63800;51.972;5.682;2024-01-30T12:42:43;-5.24;118.99
75217;HTU21D;63800;51.972;5.682;2024-01-30T12:45:11;-5.23;118.99
75217;HTU21D;63800;51.972;5.682;2024-01-30T12:47:37;-5.27;118.99
75217;HTU21D;63800;51.972;5.682;2024-01-30T12:50:03;-5.22;118.99
75217;HTU21D;63800;51.972;5.682;2024-01-30T12:52:29;-5.28;118.99
75217;HTU21D;63800;51.972;5.682;2024-01-30T12:54:54;-5.16;118.99
75217;HTU21D;63800;51.972;5.682;2024-01-30T12:57:20;-4.84;118.99
75217;HTU21D;63800;51.972;5.682;2024-01-30T12:59:46;-4.71;118.99
75217;HTU21D;63800;51.972;5.682;2024-01-30T13:02:14;-4.99;118.99
75217;HTU21D;63800;51.972;5.682;2024-01-30T13:04:40;-5.14;118.99
75217;HTU21D;63800;51.972;5.682;2024-01-30T13:07:05;-5.18;118.99
75217;HTU21D;63800;51.972;5.682;2024-01-30T13:09:31;-5.20;118.99
75217;HTU21D;63800;51.972;5.682;2024-01-30T13:11:57;-5.16;118.99
75217;HTU21D;63800;51.972;5.682;2024-01-30T13:14:24;-5.26;118.99
75217;HTU21D;63800;51.972;5.682;2024-01-30T13:16:49;-5.30;118.99
75217;HTU21D;63800;51.972;5.682;2024-01-30T13:19:15;-5.37;118.99
75217;HTU21D;63800;51.972;5.682;2024-01-30T13:21:41;-5.53;118.99
75217;HTU21D;63800;51.972;5.682;2024-01-30T13:24:06;-5.65;118.99
75217;HTU21D;63800;51.972;5.682;2024-01-30T13:26:32;-5.78;118.99
75217;HTU21D;63800;51.972;5.682;2024-01-30T13:28:58;-5.85;118.99
75217;HTU21D;63800;51.972;5.682;2024-01-30T13:31:24;-5.84;118.99
75217;HTU21D;63800;51.972;5.682;2024-01-30T13:33:50;-5.87;118.99
75217;HTU21D;63800;51.972;5.682;2024-01-30T13:36:15;-5.90;118.99
75217;HTU21D;63800;51.972;5.682;2024-01-30T13:38:41;-5.94;118.99
75217;HTU21D;63800;51.972;5.682;2024-01-30T13:41:07;-5.96;118.99
75217;HTU21D;63800;51.972;5.682;2024-01-30T13:43:32;-5.89;118.99
75217;HTU21D;63800;51.972;5.682;2024-01-30T13:45:58;-5.93;118.99
75217;HTU21D;63800;51.972;5.682;2024-01-30T13:48:24;-6.02;118.99
75217;HTU21D;63800;51.972;5.682;2024-01-30T13:50:49;-5.99;118.99
75217;HTU21D;63800;51.972;5.682;2024-01-30T13:53:15;-5.97;118.99
75217;HTU21D;63800;51.972;5.682;2024-01-30T13:55:40;-6.03;118.99
75217;HTU21D;63800;51.972;5.682;2024-01-30T13:58:06;-5.91;118.99
75217;HTU21D;63800;51.972;5.682;2024-01-30T14:00:33;-5.98;118.99
75217;HTU21D;63800;51.972;5.682;2024-01-30T14:02:59;-5.87;118.99
75217;HTU21D;63800;51.972;5.682;2024-01-30T14:05:25;-5.82;118.99
75217;HTU21D;63800;51.972;5.682;2024-01-30T14:07:51;-5.81;118.99
75217;HTU21D;63800;51.972;5.682;2024-01-30T14:10:17;-5.74;118.99
75217;HTU21D;63800;51.972;5.682;2024-01-30T14:12:43;-5.82;118.99
75217;HTU21D;63800;51.972;5.682;2024-01-30T14:15:09;-5.81;118.99
75217;HTU21D;63800;51.972;5.682;2024-01-30T14:17:36;-5.83;118.99
75217;HTU21D;63800;51.972;5.682;2024-01-30T14:20:02;-5.78;118.99
75217;HTU21D;63800;51.972;5.682;2024-01-30T14:22:30;-5.75;118.99
75217;HTU21D;63800;51.972;5.682;2024-01-30T14:24:55;-5.86;118.99
75217;HTU21D;63800;51.972;5.682;2024-01-30T14:27:21;-5.76;118.99
75217;HTU21D;63800;51.972;5.682;2024-01-30T14:29:47;-5.85;118.99
75217;HTU21D;63800;51.972;5.682;2024-01-30T14:32:12;-5.79;118.99
75217;HTU21D;63800;51.972;5.682;2024-01-30T14:34:38;-5.91;118.99
75217;HTU21D;63800;51.972;5.682;2024-01-30T14:37:04;-5.87;118.99
75217;HTU21D;63800;51.972;5.682;2024-01-30T14:39:30;-5.92;118.99
75217;HTU21D;63800;51.972;5.682;2024-01-30T14:41:55;-6.14;118.99
75217;HTU21D;63800;51.972;5.682;2024-01-30T14:44:21;-6.15;118.99
75217;HTU21D;63800;51.972;5.682;2024-01-30T14:46:46;-6.14;118.99
75217;HTU21D;63800;51.972;5.682;2024-01-30T14:49:12;-6.18;118.99
75217;HTU21D;63800;51.972;5.682;2024-01-30T14:51:37;-6.32;118.99
75217;HTU21D;63800;51.972;5.682;2024-01-30T14:54:03;-6.34;118.99
75217;HTU21D;63800;51.972;5.682;2024-01-30T14:56:29;-6.29;118.99